sensor_id;sensor_type;location;lat;lon;timestamp;P1;durP1;ratioP1;P2;durP2;ratioP2
46222;SDS011;31943;51.410;7.564;2022-07-06T00:01:04;2.63;;;0.90;;
46222;SDS011;31943;51.410;7.564;2022-07-06T00:03:30;5.07;;;0.88;;
46222;SDS011;31943;51.410;7.564;2022-07-06T00:05:56;2.05;;;0.80;;
46222;SDS011;31943;51.410;7.564;2022-07-06T00:08:21;4.15;;;0.85;;
46222;SDS011;31943;51.410;7.564;2022-07-06T00:10:48;1.88;;;0.77;;
46222;SDS011;31943;51.410;7.564;2022-07-06T00:13:14;2.67;;;0.90;;
46222;SDS011;31943;51.410;7.564;2022-07-06T00:15:40;1.40;;;0.70;;
46222;SDS011;31943;51.410;7.564;2022-07-06T00:18:05;5.97;;;1.10;;
46222;SDS011;31943;51.410;7.564;2022-07-06T00:20:31;2.63;;;0.88;;
46222;SDS011;31943;51.410;7.564;2022-07-06T00:22:56;2.60;;;0.82;;
46222;SDS011;31943;51.410;7.564;2022-07-06T00:25:22;3.63;;;0.88;;
46222;SDS011;31943;51.410;7.564;2022-07-06T00:27:49;3.10;;;1.10;;
46222;SDS011;31943;51.410;7.564;2022-07-06T00:30:15;3.28;;;1.10;;
46222;SDS011;31943;51.410;7.564;2022-07-06T00:32:41;1.92;;;1.00;;
46222;SDS011;31943;51.410;7.564;2022-07-06T00:35:06;4.10;;;1.02;;
46222;SDS011;31943;51.410;7.564;2022-07-06T00:37:32;1.83;;;0.90;;
46222;SDS011;31943;51.410;7.564;2022-07-06T00:39:58;4.05;;;1.10;;
46222;SDS011;31943;51.410;7.564;2022-07-06T00:42:23;1.83;;;0.80;;
46222;SDS011;31943;51.410;7.564;2022-07-06T00:44:50;2.05;;;0.80;;
46222;SDS011;31943;51.410;7.564;2022-07-06T00:47:16;4.28;;;1.17;;
46222;SDS011;31943;51.410;7.564;2022-07-06T00:49:41;2.72;;;0.90;;
46222;SDS011;31943;51.410;7.564;2022-07-06T00:52:07;3.70;;;1.17;;
46222;SDS011;31943;51.410;7.564;2022-07-06T00:54:32;1.30;;;0.90;;
46222;SDS011;31943;51.410;7.564;2022-07-06T00:56:59;2.53;;;1.33;;
46222;SDS011;31943;51.410;7.564;2022-07-06T00:59:24;4.05;;;1.20;;
46222;SDS011;31943;51.410;7.564;2022-07-06T01:01:53;3.05;;;1.63;;
46222;SDS011;31943;51.410;7.564;2022-07-06T01:04:19;3.33;;;1.05;;
46222;SDS011;31943;51.410;7.564;2022-07-06T01:06:45;2.97;;;1.20;;
46222;SDS011;31943;51.410;7.564;2022-07-06T01:09:11;3.15;;;1.40;;
46222;SDS011;31943;51.410;7.564;2022-07-06T01:11:36;2.80;;;1.00;;
46222;SDS011;31943;51.410;7.564;2022-07-06T01:14:02;3.75;;;1.33;;
46222;SDS011;31943;51.410;7.564;2022-07-06T01:16:28;5.35;;;1.33;;
46222;SDS011;31943;51.410;7.564;2022-07-06T01:18:55;2.85;;;1.17;;
46222;SDS011;31943;51.410;7.564;2022-07-06T01:21:23;3.28;;;1.15;;
46222;SDS011;31943;51.410;7.564;2022-07-06T01:23:48;4.53;;;1.48;;
46222;SDS011;31943;51.410;7.564;2022-07-06T01:26:15;4.03;;;1.25;;
46222;SDS011;31943;51.410;7.564;2022-07-06T01:28:43;5.22;;;1.20;;
46222;SDS011;31943;51.410;7.564;2022-07-06T01:31:13;5.47;;;1.40;;
46222;SDS011;31943;51.410;7.564;2022-07-06T01:36:05;2.63;;;1.25;;
46222;SDS011;31943;51.410;7.564;2022-07-06T01:38:32;5.32;;;1.10;;
46222;SDS011;31943;51.410;7.564;2022-07-06T01:41:08;3.80;;;1.27;;
46222;SDS011;31943;51.410;7.564;2022-07-06T01:43:34;2.15;;;0.95;;
46222;SDS011;31943;51.410;7.564;2022-07-06T01:45:59;1.20;;;0.82;;
46222;SDS011;31943;51.410;7.564;2022-07-06T01:48:25;3.80;;;1.10;;
46222;SDS011;31943;51.410;7.564;2022-07-06T01:50:50;3.72;;;1.33;;
46222;SDS011;31943;51.410;7.564;2022-07-06T01:53:19;2.40;;;1.27;;
46222;SDS011;31943;51.410;7.564;2022-07-06T01:55:46;3.45;;;0.98;;
46222;SDS011;31943;51.410;7.564;2022-07-06T01:58:12;2.67;;;0.93;;
46222;SDS011;31943;51.410;7.564;2022-07-06T02:00:37;2.38;;;1.05;;
46222;SDS011;31943;51.410;7.564;2022-07-06T02:03:03;4.00;;;1.00;;
46222;SDS011;31943;51.410;7.564;2022-07-06T02:05:28;3.25;;;1.23;;
46222;SDS011;31943;51.410;7.564;2022-07-06T02:07:54;1.60;;;0.80;;
46222;SDS011;31943;51.410;7.564;2022-07-06T02:10:20;4.50;;;1.42;;
46222;SDS011;31943;51.410;7.564;2022-07-06T02:12:47;2.42;;;0.95;;
46222;SDS011;31943;51.410;7.564;2022-07-06T02:15:12;4.55;;;1.00;;
46222;SDS011;31943;51.410;7.564;2022-07-06T02:17:38;2.67;;;1.15;;
46222;SDS011;31943;51.410;7.564;2022-07-06T02:20:04;2.90;;;1.00;;
46222;SDS011;31943;51.410;7.564;2022-07-06T02:22:30;2.08;;;1.02;;
46222;SDS011;31943;51.410;7.564;2022-07-06T02:24:55;2.75;;;1.00;;
46222;SDS011;31943;51.410;7.564;2022-07-06T02:27:21;3.03;;;0.95;;
46222;SDS011;31943;51.410;7.564;2022-07-06T02:29:48;4.13;;;1.10;;
46222;SDS011;31943;51.410;7.564;2022-07-06T02:32:14;3.40;;;1.00;;
46222;SDS011;31943;51.410;7.564;2022-07-06T02:34:39;3.20;;;0.90;;
46222;SDS011;31943;51.410;7.564;2022-07-06T02:37:05;2.72;;;1.00;;
46222;SDS011;31943;51.410;7.564;2022-07-06T02:39:30;2.22;;;0.70;;
46222;SDS011;31943;51.410;7.564;2022-07-06T02:41:56;1.85;;;0.90;;
46222;SDS011;31943;51.410;7.564;2022-07-06T02:44:22;1.80;;;0.90;;
46222;SDS011;31943;51.410;7.564;2022-07-06T02:46:49;2.53;;;1.08;;
46222;SDS011;31943;51.410;7.564;2022-07-06T02:49:14;3.65;;;1.10;;
46222;SDS011;31943;51.410;7.564;2022-07-06T02:51:40;2.05;;;1.02;;
46222;SDS011;31943;51.410;7.564;2022-07-06T02:54:05;2.78;;;1.25;;
46222;SDS011;31943;51.410;7.564;2022-07-06T02:56:31;1.83;;;0.90;;
46222;SDS011;31943;51.410;7.564;2022-07-06T02:58:56;2.50;;;0.93;;
46222;SDS011;31943;51.410;7.564;2022-07-06T03:01:22;3.22;;;1.05;;
46222;SDS011;31943;51.410;7.564;2022-07-06T03:03:49;3.15;;;1.25;;
46222;SDS011;31943;51.410;7.564;2022-07-06T03:06:14;2.80;;;1.15;;
46222;SDS011;31943;51.410;7.564;2022-07-06T03:08:40;1.73;;;1.08;;
46222;SDS011;31943;51.410;7.564;2022-07-06T03:11:05;1.85;;;1.05;;
46222;SDS011;31943;51.410;7.564;2022-07-06T03:13:31;2.42;;;1.08;;
46222;SDS011;31943;51.410;7.564;2022-07-06T03:15:57;2.55;;;1.10;;
46222;SDS011;31943;51.410;7.564;2022-07-06T03:18:22;2.70;;;1.05;;
46222;SDS011;31943;51.410;7.564;2022-07-06T03:20:49;2.65;;;0.93;;
46222;SDS011;31943;51.410;7.564;2022-07-06T03:23:15;2.72;;;1.00;;
46222;SDS011;31943;51.410;7.564;2022-07-06T03:25:40;3.53;;;1.38;;
46222;SDS011;31943;51.410;7.564;2022-07-06T03:28:06;4.75;;;1.30;;
46222;SDS011;31943;51.410;7.564;2022-07-06T03:30:31;2.00;;;1.30;;
46222;SDS011;31943;51.410;7.564;2022-07-06T03:32:57;2.88;;;1.20;;
46222;SDS011;31943;51.410;7.564;2022-07-06T03:35:23;3.13;;;1.00;;
46222;SDS011;31943;51.410;7.564;2022-07-06T03:37:50;2.80;;;1.30;;
46222;SDS011;31943;51.410;7.564;2022-07-06T03:40:16;2.88;;;1.27;;
46222;SDS011;31943;51.410;7.564;2022-07-06T03:42:41;3.15;;;1.23;;
46222;SDS011;31943;51.410;7.564;2022-07-06T03:45:08;2.22;;;1.58;;
46222;SDS011;31943;51.410;7.564;2022-07-06T03:47:34;2.33;;;1.10;;
46222;SDS011;31943;51.410;7.564;2022-07-06T03:50:00;2.80;;;1.30;;
46222;SDS011;31943;51.410;7.564;2022-07-06T03:52:25;3.53;;;1.30;;
46222;SDS011;31943;51.410;7.564;2022-07-06T03:54:53;2.95;;;1.00;;
46222;SDS011;31943;51.410;7.564;2022-07-06T03:57:19;2.65;;;1.38;;
46222;SDS011;31943;51.410;7.564;2022-07-06T03:59:45;3.00;;;1.10;;
46222;SDS011;31943;51.410;7.564;2022-07-06T04:02:11;2.53;;;1.35;;
46222;SDS011;31943;51.410;7.564;2022-07-06T04:04:36;3.83;;;1.42;;
46222;SDS011;31943;51.410;7.564;2022-07-06T04:07:02;2.05;;;1.20;;
46222;SDS011;31943;51.410;7.564;2022-07-06T04:09:28;3.38;;;1.88;;
46222;SDS011;31943;51.410;7.564;2022-07-06T04:11:55;2.83;;;1.60;;
46222;SDS011;31943;51.410;7.564;2022-07-06T04:14:20;4.22;;;2.00;;
46222;SDS011;31943;51.410;7.564;2022-07-06T04:16:46;3.63;;;1.55;;
46222;SDS011;31943;51.410;7.564;2022-07-06T04:19:11;3.17;;;1.50;;
46222;SDS011;31943;51.410;7.564;2022-07-06T04:21:37;3.47;;;1.25;;
46222;SDS011;31943;51.410;7.564;2022-07-06T04:24:03;2.28;;;1.40;;
46222;SDS011;31943;51.410;7.564;2022-07-06T04:26:29;3.75;;;1.50;;
46222;SDS011;31943;51.410;7.564;2022-07-06T04:28:56;3.13;;;1.40;;
46222;SDS011;31943;51.410;7.564;2022-07-06T04:31:21;4.35;;;1.70;;
46222;SDS011;31943;51.410;7.564;2022-07-06T04:33:47;4.93;;;1.60;;
46222;SDS011;31943;51.410;7.564;2022-07-06T04:36:13;3.03;;;1.45;;
46222;SDS011;31943;51.410;7.564;2022-07-06T04:38:38;3.00;;;1.60;;
46222;SDS011;31943;51.410;7.564;2022-07-06T04:41:04;6.35;;;2.00;;
46222;SDS011;31943;51.410;7.564;2022-07-06T04:43:30;3.72;;;1.45;;
46222;SDS011;31943;51.410;7.564;2022-07-06T04:45:57;4.68;;;1.60;;
46222;SDS011;31943;51.410;7.564;2022-07-06T04:48:23;2.35;;;1.60;;
46222;SDS011;31943;51.410;7.564;2022-07-06T04:50:48;2.85;;;1.45;;
46222;SDS011;31943;51.410;7.564;2022-07-06T04:53:14;5.95;;;1.70;;
46222;SDS011;31943;51.410;7.564;2022-07-06T04:55:40;3.38;;;1.40;;
46222;SDS011;31943;51.410;7.564;2022-07-06T04:58:05;4.00;;;1.70;;
46222;SDS011;31943;51.410;7.564;2022-07-06T05:00:31;5.00;;;1.40;;
46222;SDS011;31943;51.410;7.564;2022-07-06T05:02:59;3.05;;;1.45;;
46222;SDS011;31943;51.410;7.564;2022-07-06T05:05:25;2.83;;;1.55;;
46222;SDS011;31943;51.410;7.564;2022-07-06T05:07:50;2.90;;;1.40;;
46222;SDS011;31943;51.410;7.564;2022-07-06T05:10:16;4.82;;;1.38;;
46222;SDS011;31943;51.410;7.564;2022-07-06T05:12:41;2.90;;;1.30;;
46222;SDS011;31943;51.410;7.564;2022-07-06T05:15:08;4.63;;;1.20;;
46222;SDS011;31943;51.410;7.564;2022-07-06T05:17:34;4.45;;;1.23;;
46222;SDS011;31943;51.410;7.564;2022-07-06T05:20:01;4.13;;;1.50;;
46222;SDS011;31943;51.410;7.564;2022-07-06T05:22:27;4.35;;;1.55;;
46222;SDS011;31943;51.410;7.564;2022-07-06T05:24:52;3.35;;;1.55;;
46222;SDS011;31943;51.410;7.564;2022-07-06T05:27:18;3.80;;;1.83;;
46222;SDS011;31943;51.410;7.564;2022-07-06T05:29:44;5.45;;;1.60;;
46222;SDS011;31943;51.410;7.564;2022-07-06T05:32:09;4.53;;;1.73;;
46222;SDS011;31943;51.410;7.564;2022-07-06T05:34:35;5.40;;;1.67;;
46222;SDS011;31943;51.410;7.564;2022-07-06T05:37:02;4.78;;;1.83;;
46222;SDS011;31943;51.410;7.564;2022-07-06T05:39:28;3.58;;;1.40;;
46222;SDS011;31943;51.410;7.564;2022-07-06T05:41:54;5.60;;;1.42;;
46222;SDS011;31943;51.410;7.564;2022-07-06T05:44:19;3.05;;;1.58;;
46222;SDS011;31943;51.410;7.564;2022-07-06T05:46:45;5.20;;;1.65;;
46222;SDS011;31943;51.410;7.564;2022-07-06T05:49:10;4.35;;;1.90;;
46222;SDS011;31943;51.410;7.564;2022-07-06T05:51:36;4.13;;;1.65;;
46222;SDS011;31943;51.410;7.564;2022-07-06T05:54:03;5.20;;;2.00;;
46222;SDS011;31943;51.410;7.564;2022-07-06T05:56:28;4.95;;;1.65;;
46222;SDS011;31943;51.410;7.564;2022-07-06T05:58:54;4.45;;;1.60;;
46222;SDS011;31943;51.410;7.564;2022-07-06T06:01:20;6.75;;;2.10;;
46222;SDS011;31943;51.410;7.564;2022-07-06T06:03:45;5.32;;;1.98;;
46222;SDS011;31943;51.410;7.564;2022-07-06T06:06:11;6.05;;;1.50;;
46222;SDS011;31943;51.410;7.564;2022-07-06T06:08:36;4.07;;;1.73;;
46222;SDS011;31943;51.410;7.564;2022-07-06T06:11:03;4.25;;;1.30;;
46222;SDS011;31943;51.410;7.564;2022-07-06T06:13:29;4.13;;;1.95;;
46222;SDS011;31943;51.410;7.564;2022-07-06T06:15:55;6.82;;;1.48;;
46222;SDS011;31943;51.410;7.564;2022-07-06T06:18:20;5.20;;;1.60;;
46222;SDS011;31943;51.410;7.564;2022-07-06T06:20:46;4.13;;;1.60;;
46222;SDS011;31943;51.410;7.564;2022-07-06T06:23:11;3.30;;;1.48;;
46222;SDS011;31943;51.410;7.564;2022-07-06T06:25:37;4.75;;;1.70;;
46222;SDS011;31943;51.410;7.564;2022-07-06T06:28:06;6.78;;;1.40;;
46222;SDS011;31943;51.410;7.564;2022-07-06T06:30:33;3.33;;;1.35;;
46222;SDS011;31943;51.410;7.564;2022-07-06T06:33:06;4.03;;;1.30;;
46222;SDS011;31943;51.410;7.564;2022-07-06T06:35:33;6.13;;;1.65;;
46222;SDS011;31943;51.410;7.564;2022-07-06T06:37:58;4.93;;;1.45;;
46222;SDS011;31943;51.410;7.564;2022-07-06T06:40:24;4.72;;;1.60;;
46222;SDS011;31943;51.410;7.564;2022-07-06T06:42:50;4.97;;;1.52;;
46222;SDS011;31943;51.410;7.564;2022-07-06T06:45:17;3.47;;;1.27;;
46222;SDS011;31943;51.410;7.564;2022-07-06T06:47:42;5.28;;;1.40;;
46222;SDS011;31943;51.410;7.564;2022-07-06T06:50:08;2.80;;;1.40;;
46222;SDS011;31943;51.410;7.564;2022-07-06T06:52:34;7.75;;;1.65;;
46222;SDS011;31943;51.410;7.564;2022-07-06T06:54:59;3.20;;;1.40;;
46222;SDS011;31943;51.410;7.564;2022-07-06T06:57:25;4.75;;;1.48;;
46222;SDS011;31943;51.410;7.564;2022-07-06T06:59:50;5.53;;;1.38;;
46222;SDS011;31943;51.410;7.564;2022-07-06T07:02:18;4.10;;;1.38;;
46222;SDS011;31943;51.410;7.564;2022-07-06T07:04:43;3.45;;;1.50;;
46222;SDS011;31943;51.410;7.564;2022-07-06T07:07:09;2.85;;;1.10;;
46222;SDS011;31943;51.410;7.564;2022-07-06T07:09:35;3.25;;;1.13;;
46222;SDS011;31943;51.410;7.564;2022-07-06T07:12:00;4.18;;;1.08;;
46222;SDS011;31943;51.410;7.564;2022-07-06T07:14:26;3.33;;;0.93;;
46222;SDS011;31943;51.410;7.564;2022-07-06T07:16:51;3.20;;;1.05;;
46222;SDS011;31943;51.410;7.564;2022-07-06T07:19:19;2.60;;;0.82;;
46222;SDS011;31943;51.410;7.564;2022-07-06T07:21:44;6.20;;;1.10;;
46222;SDS011;31943;51.410;7.564;2022-07-06T07:24:10;2.75;;;0.93;;
46222;SDS011;31943;51.410;7.564;2022-07-06T07:26:35;2.67;;;0.73;;
46222;SDS011;31943;51.410;7.564;2022-07-06T07:29:01;4.95;;;0.90;;
46222;SDS011;31943;51.410;7.564;2022-07-06T07:31:27;3.95;;;0.93;;
46222;SDS011;31943;51.410;7.564;2022-07-06T07:33:52;9.13;;;1.00;;
46222;SDS011;31943;51.410;7.564;2022-07-06T07:36:21;2.90;;;1.38;;
46222;SDS011;31943;51.410;7.564;2022-07-06T07:38:46;4.88;;;0.95;;
46222;SDS011;31943;51.410;7.564;2022-07-06T07:41:12;3.08;;;1.00;;
46222;SDS011;31943;51.410;7.564;2022-07-06T07:43:37;7.45;;;1.55;;
46222;SDS011;31943;51.410;7.564;2022-07-06T07:46:03;3.58;;;1.15;;
46222;SDS011;31943;51.410;7.564;2022-07-06T07:48:29;3.22;;;0.80;;
46222;SDS011;31943;51.410;7.564;2022-07-06T07:50:54;2.85;;;0.88;;
46222;SDS011;31943;51.410;7.564;2022-07-06T07:53:22;3.08;;;1.20;;
46222;SDS011;31943;51.410;7.564;2022-07-06T07:55:47;2.55;;;0.80;;
46222;SDS011;31943;51.410;7.564;2022-07-06T07:58:13;2.20;;;0.85;;
46222;SDS011;31943;51.410;7.564;2022-07-06T08:00:39;4.35;;;0.90;;
46222;SDS011;31943;51.410;7.564;2022-07-06T08:03:04;3.72;;;0.88;;
46222;SDS011;31943;51.410;7.564;2022-07-06T08:05:30;6.72;;;1.17;;
46222;SDS011;31943;51.410;7.564;2022-07-06T08:07:56;2.30;;;0.68;;
46222;SDS011;31943;51.410;7.564;2022-07-06T08:10:23;4.35;;;1.30;;
46222;SDS011;31943;51.410;7.564;2022-07-06T08:12:48;2.35;;;0.40;;
46222;SDS011;31943;51.410;7.564;2022-07-06T08:15:14;4.93;;;0.70;;
46222;SDS011;31943;51.410;7.564;2022-07-06T08:17:40;1.83;;;0.55;;
46222;SDS011;31943;51.410;7.564;2022-07-06T08:20:06;1.58;;;0.52;;
46222;SDS011;31943;51.410;7.564;2022-07-06T08:22:34;3.55;;;0.75;;
46222;SDS011;31943;51.410;7.564;2022-07-06T08:25:00;2.38;;;0.98;;
46222;SDS011;31943;51.410;7.564;2022-07-06T08:27:27;3.75;;;1.33;;
46222;SDS011;31943;51.410;7.564;2022-07-06T08:29:53;6.97;;;1.52;;
46222;SDS011;31943;51.410;7.564;2022-07-06T08:32:19;5.78;;;1.10;;
46222;SDS011;31943;51.410;7.564;2022-07-06T08:34:44;4.15;;;1.30;;
46222;SDS011;31943;51.410;7.564;2022-07-06T08:37:11;3.28;;;1.00;;
46222;SDS011;31943;51.410;7.564;2022-07-06T08:39:36;2.90;;;0.80;;
46222;SDS011;31943;51.410;7.564;2022-07-06T08:42:02;1.98;;;0.80;;
46222;SDS011;31943;51.410;7.564;2022-07-06T08:44:30;4.25;;;1.00;;
46222;SDS011;31943;51.410;7.564;2022-07-06T08:46:56;5.07;;;0.90;;
46222;SDS011;31943;51.410;7.564;2022-07-06T08:49:23;2.53;;;0.98;;
46222;SDS011;31943;51.410;7.564;2022-07-06T08:51:50;4.47;;;0.80;;
46222;SDS011;31943;51.410;7.564;2022-07-06T08:54:17;3.03;;;0.70;;
46222;SDS011;31943;51.410;7.564;2022-07-06T08:56:43;3.00;;;1.00;;
46222;SDS011;31943;51.410;7.564;2022-07-06T08:59:09;2.15;;;0.57;;
46222;SDS011;31943;51.410;7.564;2022-07-06T09:01:36;4.00;;;0.65;;
46222;SDS011;31943;51.410;7.564;2022-07-06T09:04:04;3.15;;;0.80;;
46222;SDS011;31943;51.410;7.564;2022-07-06T09:06:31;1.85;;;0.70;;
46222;SDS011;31943;51.410;7.564;2022-07-06T09:08:56;2.25;;;0.60;;
46222;SDS011;31943;51.410;7.564;2022-07-06T09:11:23;2.90;;;0.63;;
46222;SDS011;31943;51.410;7.564;2022-07-06T09:13:49;2.20;;;0.73;;
46222;SDS011;31943;51.410;7.564;2022-07-06T09:16:15;3.58;;;0.68;;
46222;SDS011;31943;51.410;7.564;2022-07-06T09:18:44;2.78;;;0.70;;
46222;SDS011;31943;51.410;7.564;2022-07-06T09:21:11;4.10;;;0.90;;
46222;SDS011;31943;51.410;7.564;2022-07-06T09:23:37;3.10;;;0.57;;
46222;SDS011;31943;51.410;7.564;2022-07-06T09:26:03;2.25;;;0.50;;
46222;SDS011;31943;51.410;7.564;2022-07-06T09:28:40;2.42;;;0.75;;
46222;SDS011;31943;51.410;7.564;2022-07-06T09:31:06;1.92;;;0.70;;
46222;SDS011;31943;51.410;7.564;2022-07-06T09:33:32;3.22;;;1.02;;
46222;SDS011;31943;51.410;7.564;2022-07-06T09:36:00;3.95;;;0.80;;
46222;SDS011;31943;51.410;7.564;2022-07-06T09:38:25;3.35;;;0.70;;
46222;SDS011;31943;51.410;7.564;2022-07-06T09:40:51;3.80;;;0.70;;
46222;SDS011;31943;51.410;7.564;2022-07-06T09:43:17;2.92;;;0.60;;
46222;SDS011;31943;51.410;7.564;2022-07-06T09:45:44;3.05;;;0.85;;
46222;SDS011;31943;51.410;7.564;2022-07-06T09:48:11;2.05;;;0.63;;
46222;SDS011;31943;51.410;7.564;2022-07-06T09:50:38;2.88;;;0.60;;
46222;SDS011;31943;51.410;7.564;2022-07-06T09:53:06;2.88;;;1.15;;
46222;SDS011;31943;51.410;7.564;2022-07-06T09:55:32;2.75;;;0.68;;
46222;SDS011;31943;51.410;7.564;2022-07-06T09:57:58;2.35;;;0.57;;
46222;SDS011;31943;51.410;7.564;2022-07-06T10:00:23;3.50;;;0.60;;
46222;SDS011;31943;51.410;7.564;2022-07-06T10:02:49;2.40;;;0.70;;
46222;SDS011;31943;51.410;7.564;2022-07-06T10:05:16;1.95;;;0.57;;
46222;SDS011;31943;51.410;7.564;2022-07-06T10:07:42;3.58;;;0.50;;
46222;SDS011;31943;51.410;7.564;2022-07-06T10:10:10;1.60;;;0.90;;
46222;SDS011;31943;51.410;7.564;2022-07-06T10:12:36;1.85;;;0.60;;
46222;SDS011;31943;51.410;7.564;2022-07-06T10:15:04;2.65;;;0.50;;
46222;SDS011;31943;51.410;7.564;2022-07-06T10:17:31;3.38;;;0.52;;
46222;SDS011;31943;51.410;7.564;2022-07-06T10:19:58;3.63;;;0.93;;
46222;SDS011;31943;51.410;7.564;2022-07-06T10:22:24;2.47;;;0.47;;
46222;SDS011;31943;51.410;7.564;2022-07-06T10:24:49;2.50;;;0.75;;
46222;SDS011;31943;51.410;7.564;2022-07-06T10:27:17;1.90;;;0.70;;
46222;SDS011;31943;51.410;7.564;2022-07-06T10:29:43;1.55;;;0.50;;
46222;SDS011;31943;51.410;7.564;2022-07-06T10:32:09;3.50;;;0.77;;
46222;SDS011;31943;51.410;7.564;2022-07-06T10:34:35;5.00;;;0.82;;
46222;SDS011;31943;51.410;7.564;2022-07-06T10:37:01;2.08;;;0.77;;
46222;SDS011;31943;51.410;7.564;2022-07-06T10:39:34;3.47;;;0.77;;
46222;SDS011;31943;51.410;7.564;2022-07-06T10:42:00;2.13;;;0.57;;
46222;SDS011;31943;51.410;7.564;2022-07-06T10:44:27;1.52;;;0.60;;
46222;SDS011;31943;51.410;7.564;2022-07-06T10:46:54;2.83;;;0.63;;
46222;SDS011;31943;51.410;7.564;2022-07-06T10:49:20;2.17;;;0.57;;
46222;SDS011;31943;51.410;7.564;2022-07-06T10:51:47;4.13;;;0.73;;
46222;SDS011;31943;51.410;7.564;2022-07-06T10:54:13;2.33;;;0.40;;
46222;SDS011;31943;51.410;7.564;2022-07-06T10:56:42;2.40;;;0.95;;
46222;SDS011;31943;51.410;7.564;2022-07-06T10:59:08;2.05;;;0.57;;
46222;SDS011;31943;51.410;7.564;2022-07-06T11:01:36;3.83;;;0.93;;
46222;SDS011;31943;51.410;7.564;2022-07-06T11:04:05;2.28;;;0.55;;
46222;SDS011;31943;51.410;7.564;2022-07-06T11:06:32;1.73;;;0.57;;
46222;SDS011;31943;51.410;7.564;2022-07-06T11:08:59;2.58;;;0.63;;
46222;SDS011;31943;51.410;7.564;2022-07-06T11:11:26;3.78;;;0.70;;
46222;SDS011;31943;51.410;7.564;2022-07-06T11:14:04;4.05;;;0.80;;
46222;SDS011;31943;51.410;7.564;2022-07-06T11:16:31;4.00;;;0.77;;
46222;SDS011;31943;51.410;7.564;2022-07-06T11:28:23;3.00;;;0.60;;
46222;SDS011;31943;51.410;7.564;2022-07-06T11:30:50;4.03;;;0.55;;
46222;SDS011;31943;51.410;7.564;2022-07-06T11:33:27;1.73;;;0.55;;
46222;SDS011;31943;51.410;7.564;2022-07-06T11:35:53;3.03;;;0.50;;
46222;SDS011;31943;51.410;7.564;2022-07-06T11:38:46;3.30;;;0.60;;
46222;SDS011;31943;51.410;7.564;2022-07-06T11:41:12;2.90;;;0.47;;
46222;SDS011;31943;51.410;7.564;2022-07-06T11:43:40;3.95;;;0.70;;
46222;SDS011;31943;51.410;7.564;2022-07-06T11:46:06;2.95;;;0.75;;
46222;SDS011;31943;51.410;7.564;2022-07-06T11:48:31;3.78;;;0.70;;
46222;SDS011;31943;51.410;7.564;2022-07-06T11:50:58;3.47;;;0.70;;
46222;SDS011;31943;51.410;7.564;2022-07-06T11:53:24;3.92;;;0.77;;
46222;SDS011;31943;51.410;7.564;2022-07-06T11:55:50;3.00;;;0.85;;
46222;SDS011;31943;51.410;7.564;2022-07-06T11:58:15;2.67;;;0.60;;
46222;SDS011;31943;51.410;7.564;2022-07-06T12:00:50;3.50;;;0.77;;
46222;SDS011;31943;51.410;7.564;2022-07-06T12:03:28;3.45;;;0.70;;
46222;SDS011;31943;51.410;7.564;2022-07-06T12:05:53;1.85;;;0.63;;
46222;SDS011;31943;51.410;7.564;2022-07-06T12:08:19;3.40;;;0.80;;
46222;SDS011;31943;51.410;7.564;2022-07-06T12:10:44;1.65;;;0.45;;
46222;SDS011;31943;51.410;7.564;2022-07-06T12:13:10;6.43;;;1.38;;
46222;SDS011;31943;51.410;7.564;2022-07-06T12:15:36;3.33;;;0.60;;
46222;SDS011;31943;51.410;7.564;2022-07-06T12:18:03;2.38;;;0.80;;
46222;SDS011;31943;51.410;7.564;2022-07-06T12:20:28;2.05;;;0.68;;
46222;SDS011;31943;51.410;7.564;2022-07-06T12:23:00;3.60;;;0.63;;
46222;SDS011;31943;51.410;7.564;2022-07-06T12:25:29;2.97;;;0.40;;
46222;SDS011;31943;51.410;7.564;2022-07-06T12:27:55;3.40;;;0.50;;
46222;SDS011;31943;51.410;7.564;2022-07-06T12:30:21;3.08;;;0.80;;
46222;SDS011;31943;51.410;7.564;2022-07-06T12:32:47;3.10;;;0.73;;
46222;SDS011;31943;51.410;7.564;2022-07-06T12:35:14;6.63;;;0.70;;
46222;SDS011;31943;51.410;7.564;2022-07-06T12:37:40;1.45;;;0.50;;
46222;SDS011;31943;51.410;7.564;2022-07-06T12:40:20;2.37;;;0.70;;
46222;SDS011;31943;51.410;7.564;2022-07-06T12:42:51;1.48;;;0.40;;
46222;SDS011;31943;51.410;7.564;2022-07-06T12:45:17;1.55;;;0.50;;
46222;SDS011;31943;51.410;7.564;2022-07-06T12:47:52;7.38;;;0.55;;
46222;SDS011;31943;51.410;7.564;2022-07-06T12:50:29;2.17;;;0.40;;
46222;SDS011;31943;51.410;7.564;2022-07-06T12:52:56;2.80;;;0.55;;
46222;SDS011;31943;51.410;7.564;2022-07-06T12:55:25;4.43;;;0.65;;
46222;SDS011;31943;51.410;7.564;2022-07-06T12:57:51;0.88;;;0.40;;
46222;SDS011;31943;51.410;7.564;2022-07-06T13:00:17;2.53;;;0.63;;
46222;SDS011;31943;51.410;7.564;2022-07-06T13:02:43;3.15;;;0.77;;
46222;SDS011;31943;51.410;7.564;2022-07-06T13:05:11;3.80;;;0.60;;
46222;SDS011;31943;51.410;7.564;2022-07-06T13:07:39;2.50;;;1.00;;
46222;SDS011;31943;51.410;7.564;2022-07-06T13:10:10;2.10;;;0.90;;
46222;SDS011;31943;51.410;7.564;2022-07-06T13:12:38;1.70;;;0.75;;
46222;SDS011;31943;51.410;7.564;2022-07-06T13:15:04;3.25;;;0.63;;
46222;SDS011;31943;51.410;7.564;2022-07-06T13:17:30;3.85;;;0.77;;
46222;SDS011;31943;51.410;7.564;2022-07-06T13:19:56;2.28;;;0.65;;
46222;SDS011;31943;51.410;7.564;2022-07-06T13:22:22;2.05;;;0.80;;
46222;SDS011;31943;51.410;7.564;2022-07-06T13:24:49;1.98;;;0.63;;
46222;SDS011;31943;51.410;7.564;2022-07-06T13:27:15;3.97;;;0.70;;
46222;SDS011;31943;51.410;7.564;2022-07-06T13:29:40;3.65;;;1.00;;
46222;SDS011;31943;51.410;7.564;2022-07-06T13:32:06;4.00;;;0.70;;
46222;SDS011;31943;51.410;7.564;2022-07-06T13:34:32;1.52;;;0.73;;
46222;SDS011;31943;51.410;7.564;2022-07-06T13:36:58;1.60;;;0.60;;
46222;SDS011;31943;51.410;7.564;2022-07-06T13:39:24;4.10;;;0.70;;
46222;SDS011;31943;51.410;7.564;2022-07-06T13:41:51;4.50;;;0.80;;
46222;SDS011;31943;51.410;7.564;2022-07-06T13:44:17;1.80;;;0.60;;
46222;SDS011;31943;51.410;7.564;2022-07-06T13:46:42;5.35;;;0.70;;
46222;SDS011;31943;51.410;7.564;2022-07-06T13:49:08;3.30;;;0.88;;
46222;SDS011;31943;51.410;7.564;2022-07-06T13:51:34;2.92;;;0.60;;
46222;SDS011;31943;51.410;7.564;2022-07-06T13:54:00;2.53;;;0.60;;
46222;SDS011;31943;51.410;7.564;2022-07-06T13:56:25;2.78;;;0.73;;
46222;SDS011;31943;51.410;7.564;2022-07-06T13:58:53;3.80;;;0.70;;
46222;SDS011;31943;51.410;7.564;2022-07-06T14:01:19;1.77;;;0.70;;
46222;SDS011;31943;51.410;7.564;2022-07-06T14:03:45;2.08;;;0.50;;
46222;SDS011;31943;51.410;7.564;2022-07-06T14:06:10;4.68;;;1.05;;
46222;SDS011;31943;51.410;7.564;2022-07-06T14:08:37;2.97;;;0.93;;
46222;SDS011;31943;51.410;7.564;2022-07-06T14:11:04;3.50;;;0.70;;
46222;SDS011;31943;51.410;7.564;2022-07-06T14:13:31;3.90;;;0.73;;
46222;SDS011;31943;51.410;7.564;2022-07-06T14:15:58;2.85;;;0.70;;
46222;SDS011;31943;51.410;7.564;2022-07-06T14:18:24;4.00;;;1.30;;
46222;SDS011;31943;51.410;7.564;2022-07-06T14:20:50;2.70;;;0.85;;
46222;SDS011;31943;51.410;7.564;2022-07-06T14:23:18;2.38;;;0.70;;
46222;SDS011;31943;51.410;7.564;2022-07-06T14:25:44;1.17;;;0.60;;
46222;SDS011;31943;51.410;7.564;2022-07-06T14:28:10;3.70;;;0.52;;
46222;SDS011;31943;51.410;7.564;2022-07-06T14:30:37;1.00;;;0.60;;
46222;SDS011;31943;51.410;7.564;2022-07-06T14:33:04;1.67;;;0.50;;
46222;SDS011;31943;51.410;7.564;2022-07-06T14:35:30;1.88;;;0.50;;
46222;SDS011;31943;51.410;7.564;2022-07-06T14:37:55;2.85;;;0.55;;
46222;SDS011;31943;51.410;7.564;2022-07-06T14:40:21;2.45;;;0.70;;
46222;SDS011;31943;51.410;7.564;2022-07-06T14:42:46;3.25;;;0.50;;
46222;SDS011;31943;51.410;7.564;2022-07-06T14:45:12;2.63;;;0.77;;
46222;SDS011;31943;51.410;7.564;2022-07-06T14:47:38;1.00;;;0.40;;
46222;SDS011;31943;51.410;7.564;2022-07-06T14:50:05;3.72;;;1.15;;
46222;SDS011;31943;51.410;7.564;2022-07-06T14:52:31;2.28;;;0.52;;
46222;SDS011;31943;51.410;7.564;2022-07-06T14:54:57;3.95;;;0.90;;